No particular awareness of the weather is required.    There are no Weather-warnings


Meteo18 Weather Cam more information Meteo18 Weather Cam


Thunder radar more information blitzortung!


Rain radar more information rain snow radar


Visit our other weather sites:

Template documentation
and downloads

And another site



Weather Underground History page Text

Daily Summary for May 14, 2017 Units:  English    Metric   Both
« Previous Day
Next Day »
Daily Weekly Monthly Yearly Custom
  High: Low: Average:
Temperature: 68.5 °F 50.2 °F 59.5 °F
Dew Point: 56.1 °F 48 °F 52.5 °F
Humidity: 97 % 55 % 79 %
Wind Speed: 12 mph 0 mph 2.5 mph
Wind Gust: 19 mph - -
Wind:- - WSW
Pressure: 30.4 in 30.1 in -
Precipitation: 0.09 in    
Historical Graphs
 
 
Tabular Data for May 14, 2017
Time Temperature Dew Point Pressure Wind Wind Speed Wind Gust Humidity Rainfall Rate (Hourly)
00:02 54.3 °F 51.1 °F 30.1 in Calm   2 mph 89 % 0 in
00:12 54.3 °F 51.4 °F 30.1 in Calm   2 mph 90 % 0 in
00:17 54 °F 51.1 °F 30.1 in Calm   2 mph 90 % 0 in
00:22 54 °F 51.1 °F 30.1 in Calm   2 mph 90 % 0 in
00:32 54.3 °F 51.8 °F 30.1 in Calm   1 mph 91 % 0 in
00:42 54.7 °F 52.2 °F 30.1 in Calm   1 mph 91 % 0 in
00:52 55.2 °F 52.7 °F 30.1 in SW 1 mph 1 mph 91 % 0 in
00:57 55.6 °F 52.7 °F 30.1 in Calm   3 mph 90 % 0 in
01:02 54.7 °F 51.3 °F 30.1 in Calm   3 mph 88 % 0 in
01:12 54 °F 51.1 °F 30.1 in Calm   3 mph 90 % 0 in
01:17 54.1 °F 51.8 °F 30.1 in Calm   1 mph 92 % 0 in
01:22 54.5 °F 52.2 °F 30.1 in Calm   1 mph 92 % 0 in
01:32 54.9 °F 52.5 °F 30.1 in Calm   1 mph 92 % 0 in
01:37 55.2 °F 52.9 °F 30.1 in Calm   1 mph 92 % 0 in
01:42 55.4 °F 52.9 °F 30.1 in Calm     91 % 0 in
01:47 55 °F 52.2 °F 30.1 in Calm   1 mph 90 % 0 in
01:52 54.3 °F 51.4 °F 30.1 in Calm   3 mph 90 % 0 in
01:57 54 °F 51.4 °F 30.1 in South 1 mph 3 mph 91 % 0 in
02:02 53.8 °F 51.4 °F 30.1 in Calm   2 mph 92 % 0 in
02:07 53.8 °F 51.4 °F 30.1 in South 1 mph 2 mph 92 % 0 in
02:12 53.6 °F 51.6 °F 30.1 in SSW 1 mph 2 mph 93 % 0 in
02:17 53.6 °F 51.6 °F 30.1 in Calm   2 mph 93 % 0 in
02:22 53.4 °F 51.4 °F 30.1 in SSW 1 mph 2 mph 93 % 0 in
02:32 53.8 °F 52.2 °F 30.1 in SW 3 mph 3 mph 94 % 0 in
02:37 54 °F 52.3 °F 30.1 in SSW 4 mph 5 mph 94 % 0 in
02:42 54 °F 52.3 °F 30.1 in SSW 1 mph 5 mph 94 % 0.03 in
02:47 54 °F 52.3 °F 30.1 in SSW 2 mph 5 mph 94 % 0.06 in
02:52 54 °F 52.3 °F 30.1 in SSW 1 mph 5 mph 94 % 0.06 in
02:57 53.8 °F 52.2 °F 30.1 in Calm   3 mph 94 % 0.06 in
03:07 53.8 °F 52.3 °F 30.1 in Calm   2 mph 95 % 0.06 in
03:12 54 °F 52.5 °F 30.1 in SW 1 mph 2 mph 95 % 0.06 in
03:17 54 °F 52.5 °F 30.1 in Calm   2 mph 95 % 0.06 in
03:22 53.8 °F 52.3 °F 30.1 in SSW 1 mph 2 mph 95 % 0.06 in
03:27 53.8 °F 52.3 °F 30.1 in Calm   2 mph 95 % 0.06 in
03:32 54 °F 52.5 °F 30.1 in Calm   4 mph 95 % 0.06 in
03:37 54 °F 52.5 °F 30.1 in Calm   4 mph 95 % 0.06 in
03:42 54.1 °F 52.7 °F 30.1 in Calm   2 mph 95 % 0.02 in
03:47 54.1 °F 52.7 °F 30.1 in Calm   1 mph 95 % 0 in
03:52 54.1 °F 52.7 °F 30.1 in Calm   2 mph 95 % 0 in
03:57 54 °F 52.5 °F 30.1 in Calm   2 mph 95 % 0 in
04:02 54 °F 52.5 °F 30.1 in SSW 1 mph 2 mph 95 % 0 in
04:12 53.8 °F 52.3 °F 30.1 in Calm   3 mph 95 % 0 in
04:22 53.8 °F 52.3 °F 30.1 in Calm   3 mph 95 % 0.01 in
04:27 53.6 °F 52.2 °F 30.1 in Calm   1 mph 95 % 0.01 in
04:32 53.4 °F 52 °F 30.1 in Calm   1 mph 95 % 0.01 in
04:37 53.4 °F 52 °F 30.2 in Calm   1 mph 95 % 0.01 in
04:42 53.4 °F 52 °F 30.2 in Calm     95 % 0.01 in
04:47 53.4 °F 52.3 °F 30.2 in Calm     96 % 0.01 in
04:52 53.4 °F 52.3 °F 30.2 in Calm     96 % 0.01 in
05:02 53.2 °F 52.2 °F 30.2 in Calm     96 % 0.01 in
05:12 53.2 °F 52.2 °F 30.2 in Calm     96 % 0.01 in
05:17 53.1 °F 52 °F 30.2 in Calm     96 % 0 in
05:22 53.1 °F 52 °F 30.2 in Calm     96 % 0 in
05:32 53.1 °F 52 °F 30.2 in Calm     96 % 0 in
05:37 52.9 °F 51.8 °F 30.2 in Calm     96 % 0 in
05:42 52.9 °F 51.8 °F 30.2 in Calm     96 % 0 in
05:47 52.5 °F 51.4 °F 30.2 in Calm     96 % 0 in
05:52 52.3 °F 51.3 °F 30.2 in Calm     96 % 0 in
05:57 52.2 °F 51.1 °F 30.2 in Calm     96 % 0 in
06:02 52 °F 50.9 °F 30.2 in Calm     96 % 0 in
06:12 51.4 °F 50.4 °F 30.2 in Calm     96 % 0 in
06:17 51.4 °F 50.4 °F 30.2 in Calm     96 % 0 in
06:22 51.3 °F 50.2 °F 30.2 in Calm     96 % 0 in
06:27 51.3 °F 50.2 °F 30.2 in Calm     96 % 0 in
06:32 50.7 °F 49.3 °F 30.2 in Calm   1 mph 95 % 0 in
06:37 50.4 °F 49.3 °F 30.2 in Calm   1 mph 96 % 0 in
06:42 50.2 °F 49.1 °F 30.2 in Calm     96 % 0 in
06:47 50.4 °F 49.3 °F 30.2 in Calm     96 % 0 in
06:57 52.2 °F 51.3 °F 30.2 in Calm     97 % 0 in
07:02 51.6 °F 50.2 °F 30.2 in Calm     95 % 0 in
07:07 51.4 °F 50 °F 30.2 in Calm     95 % 0 in
07:12 51.4 °F 50 °F 30.2 in Calm     95 % 0 in
07:17 51.3 °F 49.8 °F 30.2 in Calm     95 % 0 in
07:27 52 °F 50.9 °F 30.2 in Calm     96 % 0 in
07:32 51.6 °F 50 °F 30.2 in Calm     94 % 0 in
07:37 51.6 °F 50.2 °F 30.2 in SSW 2 mph   95 % 0 in
07:42 51.8 °F 50.4 °F 30.2 in Calm   2 mph 95 % 0 in
07:47 52.2 °F 50.7 °F 30.2 in SSW 2 mph 2 mph 95 % 0 in
07:52 52.3 °F 50.9 °F 30.2 in Calm   2 mph 95 % 0 in
07:57 53.1 °F 52 °F 30.2 in Calm   2 mph 96 % 0 in
08:02 53.4 °F 52.3 °F 30.2 in Calm   2 mph 96 % 0 in
08:12 54.3 °F 52.9 °F 30.2 in SSW 2 mph 3 mph 95 % 0 in
08:17 54.9 °F 53.4 °F 30.2 in SW 1 mph 4 mph 95 % 0 in
08:22 55 °F 53.6 °F 30.2 in SW 5 mph 5 mph 95 % 0 in
08:32 55 °F 53.1 °F 30.2 in SW 4 mph 6 mph 93 % 0 in
08:37 55 °F 53.1 °F 30.2 in SW 2 mph 7 mph 93 % 0 in
08:42 55 °F 53.1 °F 30.2 in SW 3 mph 7 mph 93 % 0 in
08:47 55 °F 52.7 °F 30.2 in WSW 4 mph 7 mph 92 % 0 in
08:57 55.8 °F 53.4 °F 30.2 in SW 4 mph 6 mph 92 % 0 in
09:02 55.9 °F 53.4 °F 30.2 in SW 3 mph 7 mph 91 % 0 in
09:12 56.5 °F 53.2 °F 30.2 in SW 3 mph 7 mph 89 % 0 in
09:17 56.5 °F 52.7 °F 30.2 in SW 4 mph 6 mph 87 % 0 in
09:27 56.7 °F 53.1 °F 30.2 in WSW 2 mph 6 mph 88 % 0 in
09:32 56.8 °F 53.2 °F 30.2 in Calm   6 mph 88 % 0 in
09:42 57.2 °F 53.1 °F 30.2 in WSW 2 mph 5 mph 86 % 0 in
09:47 57.2 °F 52.7 °F 30.2 in SW 2 mph 5 mph 85 % 0 in
09:52 57.7 °F 53.6 °F 30.2 in South 3 mph 5 mph 86 % 0 in
09:57 58.1 °F 53.6 °F 30.2 in SSW 3 mph 5 mph 85 % 0 in
10:02 58.3 °F 53.4 °F 30.2 in SW 2 mph 5 mph 84 % 0 in
10:12 58.8 °F 54 °F 30.2 in SW 3 mph 6 mph 84 % 0 in
10:17 58.8 °F 53.6 °F 30.2 in South 4 mph 7 mph 83 % 0 in
10:22 58.8 °F 53.6 °F 30.3 in SW 5 mph 8 mph 83 % 0 in
10:32 59.4 °F 53.6 °F 30.3 in WSW 4 mph 8 mph 81 % 0 in
10:37 59.4 °F 52.9 °F 30.3 in SW 2 mph 9 mph 79 % 0 in
10:42 59.7 °F 54.1 °F 30.3 in SW 4 mph 10 mph 82 % 0 in
10:47 60.3 °F 53.8 °F 30.3 in WSW 3 mph 10 mph 79 % 0 in
10:57 61 °F 53.1 °F 30.3 in SSW 3 mph 7 mph 75 % 0 in
11:07 61.2 °F 53.6 °F 30.3 in SSW 3 mph 8 mph 76 % 0 in
11:12 61.5 °F 53.6 °F 30.3 in WSW 3 mph 8 mph 75 % 0 in
11:17 62.1 °F 52.9 °F 30.3 in WSW 4 mph 10 mph 72 % 0 in
11:22 61.7 °F 52.2 °F 30.3 in WSW 5 mph 10 mph 71 % 0 in
11:27 61.7 °F 52.5 °F 30.3 in SW 4 mph 9 mph 72 % 0 in
11:32 62.2 °F 53.4 °F 30.3 in South 4 mph 9 mph 73 % 0 in
11:42 63.1 °F 54.7 °F 30.3 in SSW 2 mph 8 mph 74 % 0 in
11:47 63.1 °F 51.6 °F 30.3 in SW 6 mph 8 mph 66 % 0 in
11:52 63.1 °F 52.9 °F 30.3 in SSE 4 mph 10 mph 69 % 0 in
11:57 63.3 °F 52.5 °F 30.3 in South 5 mph 10 mph 68 % 0 in
12:02 63.3 °F 51.4 °F 30.3 in SW 9 mph 10 mph 65 % 0 in
12:12 63.9 °F 51.4 °F 30.3 in SW 6 mph 12 mph 64 % 0 in
12:17 64 °F 51.6 °F 30.3 in SW 6 mph 12 mph 64 % 0 in
12:22 64.2 °F 50.9 °F 30.3 in SW 7 mph 12 mph 62 % 0 in
12:32 64.6 °F 49.5 °F 30.3 in SW 4 mph 12 mph 58 % 0 in
12:42 64.8 °F 50.5 °F 30.3 in WSW 9 mph 17 mph 60 % 0 in
12:52 65.1 °F 51.3 °F 30.3 in WSW 8 mph 15 mph 61 % 0 in
12:57 65.1 °F 50.4 °F 30.3 in SSW 4 mph 15 mph 59 % 0 in
13:02 65.8 °F 52 °F 30.3 in SW 4 mph 13 mph 61 % 0 in
13:07 66.4 °F 52.9 °F 30.3 in SSW 7 mph 13 mph 62 % 0 in
13:12 66.7 °F 53.2 °F 30.3 in SW 7 mph 14 mph 62 % 0 in
13:17 66.9 °F 52.2 °F 30.3 in SSW 7 mph 14 mph 59 % 0 in
13:22 66.9 °F 52.5 °F 30.3 in SW 4 mph 14 mph 60 % 0 in
13:27 67.1 °F 52.3 °F 30.3 in SW 4 mph 13 mph 59 % 0 in
13:32 67.3 °F 53.4 °F 30.3 in SW 11 mph 13 mph 61 % 0 in
13:37 66.7 °F 52 °F 30.3 in SW 5 mph 13 mph 59 % 0 in
13:42 66.4 °F 52.5 °F 30.3 in SSW 6 mph 13 mph 61 % 0 in
13:52 66.4 °F 53.4 °F 30.3 in SW 4 mph 12 mph 63 % 0 in
13:57 66.6 °F 53.1 °F 30.3 in WSW 7 mph 12 mph 62 % 0 in
14:02 66.4 °F 51.1 °F 30.3 in SW 6 mph 13 mph 58 % 0 in
14:07 66.6 °F 51.8 °F 30.3 in WSW 9 mph 13 mph 59 % 0 in
14:12 66.6 °F 52.2 °F 30.3 in SW 8 mph 13 mph 60 % 0 in
14:17 66.6 °F 51.8 °F 30.3 in WSW 5 mph 12 mph 59 % 0 in
14:22 66.9 °F 52.5 °F 30.3 in SW 3 mph 12 mph 60 % 0 in
14:32 67.1 °F 52.7 °F 30.3 in SSW 4 mph 11 mph 60 % 0 in
14:37 67.8 °F 54 °F 30.3 in WSW 3 mph 11 mph 61 % 0 in
14:42 68.2 °F 52.9 °F 30.3 in WSW 4 mph 11 mph 58 % 0 in
14:47 68.4 °F 53.1 °F 30.3 in SSW 6 mph 12 mph 58 % 0 in
14:52 68.5 °F 51.8 °F 30.3 in SSW 12 mph 12 mph 55 % 0 in
14:57 68.4 °F 53.1 °F 30.3 in West 4 mph 12 mph 58 % 0 in
15:02 68 °F 52.2 °F 30.3 in SW 7 mph 12 mph 57 % 0 in
15:07 67.6 °F 52.9 °F 30.3 in SW 9 mph 12 mph 59 % 0 in
15:12 67.5 °F 53.1 °F 30.3 in WSW 6 mph 13 mph 60 % 0 in
15:17 67.3 °F 52.5 °F 30.3 in West 4 mph 14 mph 59 % 0 in
15:22 66.7 °F 52.3 °F 30.3 in WSW 4 mph 14 mph 60 % 0 in
15:27 66 °F 52.2 °F 30.3 in West 11 mph 14 mph 61 % 0 in
15:32 63.1 °F 54 °F 30.3 in West 3 mph 19 mph 72 % 0 in
15:37 62.2 °F 54.5 °F 30.3 in WNW 7 mph 19 mph 76 % 0.02 in
15:42 62.6 °F 54.9 °F 30.3 in West 2 mph 19 mph 76 % 0.02 in
15:47 63.3 °F 55.2 °F 30.3 in SW 3 mph 12 mph 75 % 0.02 in
15:52 64 °F 55.2 °F 30.3 in West 3 mph 12 mph 73 % 0.02 in
16:02 65.7 °F 54 °F 30.3 in West 4 mph 8 mph 66 % 0.02 in
16:07 66.6 °F 56.1 °F 30.3 in WSW 5 mph 10 mph 69 % 0.02 in
16:12 66.7 °F 54.7 °F 30.3 in WSW 2 mph 10 mph 65 % 0.02 in
16:17 66.7 °F 55 °F 30.3 in West 5 mph 7 mph 66 % 0.02 in
16:22 66.4 °F 54.3 °F 30.3 in WNW 3 mph 7 mph 65 % 0.02 in
16:27 66.4 °F 54.3 °F 30.3 in WNW 6 mph 8 mph 65 % 0.02 in
16:32 66.6 °F 55.6 °F 30.3 in WNW 5 mph 8 mph 68 % 0.01 in
16:37 66.6 °F 56.1 °F 30.3 in West 3 mph 9 mph 69 % 0 in
16:42 66.4 °F 55.9 °F 30.3 in WSW 7 mph 9 mph 69 % 0 in
16:47 66.4 °F 55.9 °F 30.3 in WNW 7 mph 9 mph 69 % 0 in
16:52 66.4 °F 55.6 °F 30.3 in West 3 mph 10 mph 68 % 0 in
16:57 66.2 °F 54.5 °F 30.3 in West 5 mph 11 mph 66 % 0 in
17:02 66 °F 54.7 °F 30.3 in West 6 mph 12 mph 67 % 0 in
17:12 63.9 °F 54.3 °F 30.3 in WNW 7 mph 17 mph 71 % 0 in
17:17 63.7 °F 53.2 °F 30.3 in West 6 mph 17 mph 69 % 0 in
17:22 63.9 °F 54.7 °F 30.3 in West 6 mph 15 mph 72 % 0 in
17:27 64.6 °F 55.8 °F 30.3 in West 2 mph 10 mph 73 % 0 in
17:32 64.8 °F 55.2 °F 30.3 in West 3 mph 11 mph 71 % 0 in
17:42 64.9 °F 55.4 °F 30.3 in WSW 6 mph 11 mph 71 % 0 in
17:52 65.7 °F 55.2 °F 30.3 in West 3 mph 9 mph 69 % 0 in
17:57 65.8 °F 55.8 °F 30.3 in West 5 mph 9 mph 70 % 0 in
18:02 66.4 °F 55.9 °F 30.3 in WSW 7 mph 9 mph 69 % 0 in
18:12 67.3 °F 55 °F 30.3 in WSW 8 mph 12 mph 65 % 0 in
18:17 67.3 °F 54.3 °F 30.3 in WSW 2 mph 12 mph 63 % 0 in
18:22 67.3 °F 51.4 °F 30.3 in West 4 mph 12 mph 57 % 0 in
18:27 67.3 °F 52.5 °F 30.3 in South 4 mph 13 mph 59 % 0 in
18:32 67.3 °F 52.5 °F 30.3 in WSW 10 mph 13 mph 59 % 0 in
18:37 67.1 °F 52.3 °F 30.3 in WSW 3 mph 14 mph 59 % 0 in
18:42 67.5 °F 54 °F 30.3 in WNW 3 mph 14 mph 62 % 0 in
18:52 67.3 °F 53.8 °F 30.3 in WSW 5 mph 10 mph 62 % 0 in
18:57 66.9 °F 53.4 °F 30.3 in West 5 mph 11 mph 62 % 0 in
19:02 67.1 °F 54.1 °F 30.3 in West 4 mph 11 mph 63 % 0 in
19:12 67.1 °F 54.5 °F 30.3 in WNW 4 mph 8 mph 64 % 0 in
19:17 66.9 °F 54 °F 30.3 in West 7 mph 8 mph 63 % 0 in
19:22 66.4 °F 53.8 °F 30.3 in West 3 mph 9 mph 64 % 0 in
19:27 66 °F 54 °F 30.3 in SW 3 mph 9 mph 65 % 0 in
19:32 66 °F 53.4 °F 30.3 in WSW 8 mph 9 mph 64 % 0 in
19:37 66 °F 53.4 °F 30.3 in West 4 mph 8 mph 64 % 0 in
19:42 66 °F 53.4 °F 30.3 in West 3 mph 9 mph 64 % 0 in
19:52 65.7 °F 53.2 °F 30.3 in WNW 4 mph 8 mph 64 % 0 in
19:57 65.3 °F 53.2 °F 30.3 in SW 5 mph 8 mph 65 % 0 in
20:02 65.1 °F 54 °F 30.3 in WSW 6 mph 8 mph 67 % 0 in
20:12 65.7 °F 54 °F 30.3 in West 4 mph 6 mph 66 % 0 in
20:17 65.8 °F 54.1 °F 30.3 in West 2 mph 6 mph 66 % 0 in
20:22 66 °F 54 °F 30.3 in WSW 1 mph 6 mph 65 % 0 in
20:27 65.7 °F 54.3 °F 30.3 in West 3 mph 6 mph 67 % 0 in
20:32 65.1 °F 54 °F 30.3 in WSW 1 mph 5 mph 67 % 0 in
20:37 64.8 °F 54 °F 30.3 in WSW 2 mph 5 mph 68 % 0 in
20:42 64.6 °F 54.1 °F 30.3 in Calm   5 mph 69 % 0 in
20:47 64 °F 54.5 °F 30.3 in WSW 1 mph 4 mph 71 % 0 in
20:52 63.9 °F 54.7 °F 30.3 in WSW 1 mph 3 mph 72 % 0 in
20:57 63.7 °F 54.5 °F 30.3 in WSW 1 mph 4 mph 72 % 0 in
21:02 63.3 °F 54.1 °F 30.3 in West 1 mph 4 mph 72 % 0 in
21:07 63 °F 54.1 °F 30.3 in West 2 mph 4 mph 73 % 0 in
21:12 62.2 °F 54.1 °F 30.3 in WSW 1 mph 2 mph 75 % 0 in
21:17 62.1 °F 54 °F 30.3 in Calm   2 mph 75 % 0 in
21:22 61.5 °F 54 °F 30.3 in WNW 2 mph 2 mph 76 % 0 in
21:27 61 °F 54.1 °F 30.3 in Calm   2 mph 78 % 0 in
21:32 60.4 °F 54 °F 30.3 in Calm   2 mph 79 % 0 in
21:42 59.5 °F 53.8 °F 30.3 in Calm   1 mph 81 % 0 in
21:52 58.3 °F 53.4 °F 30.3 in West 1 mph 1 mph 84 % 0 in
21:57 57.6 °F 53.1 °F 30.3 in Calm   1 mph 85 % 0 in
22:02 57.6 °F 52.7 °F 30.3 in Calm   1 mph 84 % 0 in
22:07 57.4 °F 52.3 °F 30.3 in Calm   1 mph 83 % 0 in
22:12 57.4 °F 52.3 °F 30.3 in Calm   1 mph 83 % 0 in
22:17 57.4 °F 51.6 °F 30.3 in Calm   2 mph 81 % 0 in
22:22 57.2 °F 51.4 °F 30.3 in Calm   2 mph 81 % 0 in
22:32 56.1 °F 50.4 °F 30.3 in West 1 mph 2 mph 81 % 0 in
22:42 56.3 °F 49.5 °F 30.4 in Calm   3 mph 78 % 0 in
22:47 55.6 °F 49.1 °F 30.4 in Calm   2 mph 79 % 0 in
22:52 55.4 °F 48.9 °F 30.4 in Calm   1 mph 79 % 0 in
22:57 55.2 °F 49.1 °F 30.4 in Calm   1 mph 80 % 0 in
23:02 54.7 °F 49.3 °F 30.4 in Calm   1 mph 82 % 0 in
23:07 54.3 °F 48.9 °F 30.4 in Calm   1 mph 82 % 0 in
23:12 54.1 °F 49.1 °F 30.4 in Calm   1 mph 83 % 0 in
23:17 54 °F 48.9 °F 30.4 in Calm   1 mph 83 % 0 in
23:22 53.8 °F 48.7 °F 30.4 in Calm   1 mph 83 % 0 in
23:27 53.4 °F 48.4 °F 30.4 in Calm   1 mph 83 % 0 in
23:37 52.9 °F 48.2 °F 30.4 in Calm   1 mph 84 % 0 in
23:42 52.7 °F 48 °F 30.4 in Calm     84 % 0 in
23:52 52.3 °F 48 °F 30.4 in Calm     85 % 0 in
Meteo18
Compliments of Weather Underground - 4 mb

Script developed by  Jim McMurry - jmcmurry@mwt.net Adapted for the template by  Wim van der Kuil - Leuven-Template.eu

You find our weather info also at:

European Weather Network

Weather Underground

Equipment we use:

Weather-station
Davis Vue

Weather-program
Meteohub

Weather-server
Raspberry PI 2 B+

Provider
1 and 1

Davis Vue

Meteohub

Raspberry PI 2 B+

1 and 1